Club Med II — FNIR — position and weather

sailwx.info

Track history (hours):
 
Tides and Currents Weather Stations Pressure Air Temp Water Temp Dewpoint Dewpoint Depression Visibility Wind Speed Wind Dir Waves Ship Positions

Club Med II

Operator: V.Ships Leisure S.A.M

Last reported at 2017-Mar-11 08:25 UTC. Time now 2017-Mar-24 12:22 UTC.
Position N 15°57' W 061°46'.
Warning: this ship's position is 13 days out of date.

Length 187 m; draft 5.2 m.

Type: Ship. MMSI: 227194000.

Date/timePositionNaut miles runAvg speedWind from/ knotsBaromVisibWave heightAir tempDewpointWater temp
2017-Mar-11 08:25N 15°57' W 061°46'10 9.0
2017-Mar-11 07:19N 16°06' W 061°51'7 8.9
2017-Mar-11 06:33N 16°11' W 061°56'9 8.6
2017-Mar-11 05:33N 16°17' W 062°02'9 8.7
2017-Mar-11 04:33N 16°23' W 062°08'8 8.2
2017-Mar-11 03:33N 16°29' W 062°14'8 8.4
2017-Mar-11 02:33N 16°36' W 062°20'9 8.6
2017-Mar-11 01:33N 16°42' W 062°25'165 6.1
2017-Mar-09 22:33N 18°15' W 064°48'5 5.1
2017-Mar-09 21:31N 18°21' W 064°48'0 0.0
2017-Mar-09 20:19N 18°20' W 064°48'0 0.0
2017-Mar-09 19:31N 18°21' W 064°48'0 0.0
2017-Mar-09 18:31N 18°21' W 064°48'0 0.0
2017-Mar-09 17:31N 18°21' W 064°48'0 0.0
2017-Mar-09 16:31N 18°21' W 064°48'0 0.0
2017-Mar-09 15:31N 18°21' W 064°48'0 0.0
2017-Mar-09 14:31N 18°20' W 064°48'0 0.1
2017-Mar-09 13:33N 18°21' W 064°48'0 0.0
2017-Mar-09 12:33N 18°21' W 064°48'0 0.0
2017-Mar-09 11:33N 18°21' W 064°48'0 0.0
2017-Mar-09 10:33N 18°21' W 064°48'0 0.0
2017-Mar-09 09:33N 18°20' W 064°48'0 0.0
2017-Mar-09 08:33N 18°21' W 064°48'0 0.0
2017-Mar-09 07:33N 18°20' W 064°48'0 0.0
2017-Mar-09 06:33N 18°21' W 064°48'0 0.0
2017-Mar-09 05:33N 18°21' W 064°48'0 0.0
2017-Mar-09 04:33N 18°21' W 064°48'0 0.0
2017-Mar-09 03:33N 18°21' W 064°48'0 0.0
2017-Mar-09 02:33N 18°20' W 064°48'5 5.2
2017-Mar-09 01:33N 18°16' W 064°51'6 5.2
2017-Mar-09 00:24N 18°15' W 064°57'3 0.2
2017-Mar-08 10:26N 18°18' W 064°55'7 7.8
2017-Mar-08 09:32N 18°11' W 064°58'62 7.7
2017-Mar-08 01:32N 18°32' W 065°59'5 0.3
2017-Mar-07 10:12N 18°32' W 066°04'75 6.9
2017-Mar-06 23:25N 18°09' W 064°49'910.2
2017-Mar-06 22:32N 18°15' W 064°43'1212.2
2017-Mar-06 21:33N 18°23' W 064°34'7 6.9
2017-Mar-06 20:30N 18°27' W 064°27'0 0.0
2017-Mar-06 19:30N 18°27' W 064°27'0 0.1
2017-Mar-06 18:30N 18°27' W 064°27'0 0.0
2017-Mar-06 16:30N 18°27' W 064°27'0 0.0
2017-Mar-06 15:32N 18°27' W 064°27'0 0.0
2017-Mar-06 14:33N 18°27' W 064°27'0 0.1
2017-Mar-06 13:24N 18°27' W 064°27'0 0.4
2017-Mar-06 12:30N 18°27' W 064°27'0 0.5
2017-Mar-06 11:33N 18°27' W 064°27'7 6.7
2017-Mar-06 10:33N 18°22' W 064°22'47 5.8
2017-Mar-06 02:26N 17°56' W 063°41'9 8.6
2017-Mar-06 01:25N 18°01' W 063°33'8 8.6
2017-Mar-06 00:27N 18°05' W 063°25'8 8.7
2017-Mar-05 23:30N 18°09' W 063°18'7 7.4
2017-Mar-05 22:33N 18°12' W 063°11'1 0.1
2017-Mar-05 10:30N 18°11' W 063°10'1412.7
2017-Mar-05 09:24N 17°57' W 063°11'1314.3
2017-Mar-05 08:27N 17°44' W 063°08'6914.0
2017-Mar-05 03:30N 16°46' W 062°28'1414.3
2017-Mar-05 02:32N 16°36' W 062°19'1414.1
2017-Mar-05 01:33N 16°25' W 062°10'1414.0
2017-Mar-05 00:32N 16°14' W 062°00'1813.7
2017-Mar-04 23:15N 16°00' W 061°49'1313.0
2017-Mar-04 22:14N 15°55' W 061°36'  
Track history (hours):
 
Tides and Currents Weather Stations Pressure Air Temp Water Temp Dewpoint Dewpoint Depression Visibility Wind Speed Wind Dir Waves Ship Positions

Club Med II

Operator: V.Ships Leisure S.A.M

Last reported at 2017-Mar-11 08:25 UTC. Time now 2017-Mar-24 12:22 UTC.
Position N 15°57' W 061°46'.
Warning: this ship's position is 13 days out of date.

Length 187 m; draft 5.2 m.

Type: Ship. MMSI: 227194000.

Date/timePositionNaut miles runAvg speedWind from/ knotsBaromVisibWave heightAir tempDewpointWater temp
2017-Mar-11 08:25N 15°57' W 061°46'10 9.0
2017-Mar-11 07:19N 16°06' W 061°51'7 8.9
2017-Mar-11 06:33N 16°11' W 061°56'9 8.6
2017-Mar-11 05:33N 16°17' W 062°02'9 8.7
2017-Mar-11 04:33N 16°23' W 062°08'8 8.2
2017-Mar-11 03:33N 16°29' W 062°14'8 8.4
2017-Mar-11 02:33N 16°36' W 062°20'9 8.6
2017-Mar-11 01:33N 16°42' W 062°25'165 6.1
2017-Mar-09 22:33N 18°15' W 064°48'5 5.1
2017-Mar-09 21:31N 18°21' W 064°48'0 0.0
2017-Mar-09 20:19N 18°20' W 064°48'0 0.0
2017-Mar-09 19:31N 18°21' W 064°48'0 0.0
2017-Mar-09 18:31N 18°21' W 064°48'0 0.0
2017-Mar-09 17:31N 18°21' W 064°48'0 0.0
2017-Mar-09 16:31N 18°21' W 064°48'0 0.0
2017-Mar-09 15:31N 18°21' W 064°48'0 0.0
2017-Mar-09 14:31N 18°20' W 064°48'0 0.1
2017-Mar-09 13:33N 18°21' W 064°48'0 0.0
2017-Mar-09 12:33N 18°21' W 064°48'0 0.0
2017-Mar-09 11:33N 18°21' W 064°48'0 0.0
2017-Mar-09 10:33N 18°21' W 064°48'0 0.0
2017-Mar-09 09:33N 18°20' W 064°48'0 0.0
2017-Mar-09 08:33N 18°21' W 064°48'0 0.0
2017-Mar-09 07:33N 18°20' W 064°48'0 0.0
2017-Mar-09 06:33N 18°21' W 064°48'0 0.0
2017-Mar-09 05:33N 18°21' W 064°48'0 0.0
2017-Mar-09 04:33N 18°21' W 064°48'0 0.0
2017-Mar-09 03:33N 18°21' W 064°48'0 0.0
2017-Mar-09 02:33N 18°20' W 064°48'5 5.2
2017-Mar-09 01:33N 18°16' W 064°51'6 5.2
2017-Mar-09 00:24N 18°15' W 064°57'3 0.2
2017-Mar-08 10:26N 18°18' W 064°55'7 7.8
2017-Mar-08 09:32N 18°11' W 064°58'62 7.7
2017-Mar-08 01:32N 18°32' W 065°59'5 0.3
2017-Mar-07 10:12N 18°32' W 066°04'75 6.9
2017-Mar-06 23:25N 18°09' W 064°49'910.2
2017-Mar-06 22:32N 18°15' W 064°43'1212.2
2017-Mar-06 21:33N 18°23' W 064°34'7 6.9
2017-Mar-06 20:30N 18°27' W 064°27'0 0.0
2017-Mar-06 19:30N 18°27' W 064°27'0 0.1
2017-Mar-06 18:30N 18°27' W 064°27'0 0.0
2017-Mar-06 16:30N 18°27' W 064°27'0 0.0
2017-Mar-06 15:32N 18°27' W 064°27'0 0.0
2017-Mar-06 14:33N 18°27' W 064°27'0 0.1
2017-Mar-06 13:24N 18°27' W 064°27'0 0.4
2017-Mar-06 12:30N 18°27' W 064°27'0 0.5
2017-Mar-06 11:33N 18°27' W 064°27'7 6.7
2017-Mar-06 10:33N 18°22' W 064°22'47 5.8
2017-Mar-06 02:26N 17°56' W 063°41'9 8.6
2017-Mar-06 01:25N 18°01' W 063°33'8 8.6
2017-Mar-06 00:27N 18°05' W 063°25'8 8.7
2017-Mar-05 23:30N 18°09' W 063°18'7 7.4
2017-Mar-05 22:33N 18°12' W 063°11'1 0.1
2017-Mar-05 10:30N 18°11' W 063°10'1412.7
2017-Mar-05 09:24N 17°57' W 063°11'1314.3
2017-Mar-05 08:27N 17°44' W 063°08'6914.0
2017-Mar-05 03:30N 16°46' W 062°28'1414.3
2017-Mar-05 02:32N 16°36' W 062°19'1414.1
2017-Mar-05 01:33N 16°25' W 062°10'1414.0
2017-Mar-05 00:32N 16°14' W 062°00'1813.7
2017-Mar-04 23:15N 16°00' W 061°49'1313.0
2017-Mar-04 22:14N 15°55' W 061°36'  

Dump ship's entire track history